sensor_id;sensor_type;location;lat;lon;timestamp;pressure;altitude;pressure_sealevel;temperature;humidity
30618;BME280;17384;51.214;9.202;2023-09-19T00:01:41;97873.19;;;14.63;100.00
30618;BME280;17384;51.214;9.202;2023-09-19T00:04:09;97875.09;;;14.63;100.00
30618;BME280;17384;51.214;9.202;2023-09-19T00:06:36;97867.38;;;14.54;100.00
30618;BME280;17384;51.214;9.202;2023-09-19T00:09:02;97867.41;;;14.60;100.00
30618;BME280;17384;51.214;9.202;2023-09-19T00:11:28;97883.53;;;14.61;100.00
30618;BME280;17384;51.214;9.202;2023-09-19T00:13:54;97887.56;;;14.53;100.00
30618;BME280;17384;51.214;9.202;2023-09-19T00:16:19;97891.38;;;14.47;100.00
30618;BME280;17384;51.214;9.202;2023-09-19T00:18:46;97889.22;;;14.49;100.00
30618;BME280;17384;51.214;9.202;2023-09-19T00:21:12;97902.84;;;14.49;100.00
30618;BME280;17384;51.214;9.202;2023-09-19T00:23:38;97895.16;;;14.41;100.00
30618;BME280;17384;51.214;9.202;2023-09-19T00:26:03;97913.44;;;14.41;100.00
30618;BME280;17384;51.214;9.202;2023-09-19T00:28:29;97915.13;;;14.47;100.00
30618;BME280;17384;51.214;9.202;2023-09-19T00:30:55;97912.66;;;14.45;100.00
30618;BME280;17384;51.214;9.202;2023-09-19T00:33:21;97920.06;;;14.55;100.00
30618;BME280;17384;51.214;9.202;2023-09-19T00:35:51;97921.97;;;14.54;100.00
30618;BME280;17384;51.214;9.202;2023-09-19T00:38:18;97916.81;;;14.58;100.00
30618;BME280;17384;51.214;9.202;2023-09-19T00:40:47;97909.09;;;14.50;100.00
30618;BME280;17384;51.214;9.202;2023-09-19T00:43:13;97905.59;;;14.54;100.00
30618;BME280;17384;51.214;9.202;2023-09-19T00:45:39;97913.53;;;14.56;100.00
30618;BME280;17384;51.214;9.202;2023-09-19T00:48:08;97913.22;;;14.52;100.00
30618;BME280;17384;51.214;9.202;2023-09-19T00:50:35;97915.44;;;14.55;100.00
30618;BME280;17384;51.214;9.202;2023-09-19T00:53:01;97913.47;;;14.46;100.00
30618;BME280;17384;51.214;9.202;2023-09-19T00:55:29;97922.47;;;14.46;100.00
30618;BME280;17384;51.214;9.202;2023-09-19T00:57:56;97926.03;;;14.52;100.00
30618;BME280;17384;51.214;9.202;2023-09-19T01:00:21;97929.31;;;14.49;100.00
30618;BME280;17384;51.214;9.202;2023-09-19T01:02:48;97926.03;;;14.47;100.00
30618;BME280;17384;51.214;9.202;2023-09-19T01:05:14;97929.59;;;14.47;100.00
30618;BME280;17384;51.214;9.202;2023-09-19T01:07:39;97924.69;;;14.49;100.00
30618;BME280;17384;51.214;9.202;2023-09-19T01:10:12;97924.94;;;14.48;100.00
30618;BME280;17384;51.214;9.202;2023-09-19T01:12:55;97925.47;;;14.50;100.00
30618;BME280;17384;51.214;9.202;2023-09-19T01:18:33;97919.44;;;14.43;100.00
30618;BME280;17384;51.214;9.202;2023-09-19T01:21:15;97929.84;;;14.46;100.00
30618;BME280;17384;51.214;9.202;2023-09-19T01:32:05;97942.28;;;14.37;100.00
30618;BME280;17384;51.214;9.202;2023-09-19T01:34:49;97935.91;;;14.26;100.00
30618;BME280;17384;51.214;9.202;2023-09-19T01:37:16;97954.50;;;14.29;100.00
30618;BME280;17384;51.214;9.202;2023-09-19T01:39:49;97943.13;;;14.37;100.00
30618;BME280;17384;51.214;9.202;2023-09-19T01:48:05;97947.34;;;14.23;100.00
30618;BME280;17384;51.214;9.202;2023-09-19T01:50:44;97950.56;;;14.15;100.00
30618;BME280;17384;51.214;9.202;2023-09-19T01:53:22;97957.38;;;14.12;100.00
30618;BME280;17384;51.214;9.202;2023-09-19T01:55:50;97962.00;;;14.12;100.00
30618;BME280;17384;51.214;9.202;2023-09-19T01:58:39;97961.47;;;14.15;100.00
30618;BME280;17384;51.214;9.202;2023-09-19T02:01:11;97942.94;;;14.17;100.00
30618;BME280;17384;51.214;9.202;2023-09-19T02:03:39;97959.84;;;14.14;100.00
30618;BME280;17384;51.214;9.202;2023-09-19T02:06:05;97970.31;;;14.00;100.00
30618;BME280;17384;51.214;9.202;2023-09-19T02:08:36;97977.22;;;14.08;100.00
30618;BME280;17384;51.214;9.202;2023-09-19T02:11:02;97973.41;;;14.09;100.00
30618;BME280;17384;51.214;9.202;2023-09-19T02:13:28;97969.56;;;14.05;100.00
30618;BME280;17384;51.214;9.202;2023-09-19T02:15:55;97980.97;;;14.02;100.00
30618;BME280;17384;51.214;9.202;2023-09-19T02:18:21;97983.91;;;13.95;100.00
30618;BME280;17384;51.214;9.202;2023-09-19T02:20:47;97971.66;;;13.98;100.00
30618;BME280;17384;51.214;9.202;2023-09-19T02:23:13;97989.09;;;13.97;100.00
30618;BME280;17384;51.214;9.202;2023-09-19T02:25:39;97985.84;;;13.95;100.00
30618;BME280;17384;51.214;9.202;2023-09-19T02:28:06;97977.91;;;13.93;100.00
30618;BME280;17384;51.214;9.202;2023-09-19T02:30:32;97985.22;;;13.87;100.00
30618;BME280;17384;51.214;9.202;2023-09-19T02:32:57;97989.97;;;13.75;100.00
30618;BME280;17384;51.214;9.202;2023-09-19T02:35:23;97986.91;;;13.67;100.00
30618;BME280;17384;51.214;9.202;2023-09-19T02:37:48;97988.41;;;13.58;100.00
30618;BME280;17384;51.214;9.202;2023-09-19T02:40:14;97997.34;;;13.53;100.00
30618;BME280;17384;51.214;9.202;2023-09-19T02:42:54;97997.03;;;13.49;100.00
30618;BME280;17384;51.214;9.202;2023-09-19T02:45:20;97990.75;;;13.49;100.00
30618;BME280;17384;51.214;9.202;2023-09-19T02:47:46;97990.13;;;13.42;100.00
30618;BME280;17384;51.214;9.202;2023-09-19T02:50:12;98004.81;;;13.41;100.00
30618;BME280;17384;51.214;9.202;2023-09-19T02:52:42;97998.25;;;13.37;100.00
30618;BME280;17384;51.214;9.202;2023-09-19T02:55:14;97996.09;;;13.39;100.00
30618;BME280;17384;51.214;9.202;2023-09-19T02:57:49;98010.16;;;13.31;100.00
30618;BME280;17384;51.214;9.202;2023-09-19T03:00:16;98021.06;;;13.31;100.00
30618;BME280;17384;51.214;9.202;2023-09-19T03:02:41;98013.44;;;13.33;100.00
30618;BME280;17384;51.214;9.202;2023-09-19T03:05:08;98014.78;;;13.30;100.00
30618;BME280;17384;51.214;9.202;2023-09-19T03:07:36;98027.16;;;13.21;100.00
30618;BME280;17384;51.214;9.202;2023-09-19T03:10:05;98030.72;;;13.21;100.00
30618;BME280;17384;51.214;9.202;2023-09-19T03:12:30;98012.16;;;13.18;100.00
30618;BME280;17384;51.214;9.202;2023-09-19T03:14:57;98018.09;;;13.15;100.00
30618;BME280;17384;51.214;9.202;2023-09-19T03:17:22;98012.56;;;13.10;100.00
30618;BME280;17384;51.214;9.202;2023-09-19T03:19:48;98023.72;;;13.09;100.00
30618;BME280;17384;51.214;9.202;2023-09-19T03:22:14;98015.97;;;13.01;100.00
30618;BME280;17384;51.214;9.202;2023-09-19T03:24:40;98030.66;;;13.00;100.00
30618;BME280;17384;51.214;9.202;2023-09-19T03:27:05;98018.84;;;12.94;100.00
30618;BME280;17384;51.214;9.202;2023-09-19T03:29:31;98024.22;;;12.89;100.00
30618;BME280;17384;51.214;9.202;2023-09-19T03:31:56;98036.75;;;12.90;100.00
30618;BME280;17384;51.214;9.202;2023-09-19T03:34:22;98027.06;;;12.77;100.00
30618;BME280;17384;51.214;9.202;2023-09-19T03:36:47;98030.59;;;12.78;100.00
30618;BME280;17384;51.214;9.202;2023-09-19T03:39:12;98032.41;;;12.72;100.00
30618;BME280;17384;51.214;9.202;2023-09-19T03:41:40;98041.91;;;12.70;100.00
30618;BME280;17384;51.214;9.202;2023-09-19T03:44:05;98035.72;;;12.58;100.00
30618;BME280;17384;51.214;9.202;2023-09-19T03:46:31;98031.13;;;12.58;100.00
30618;BME280;17384;51.214;9.202;2023-09-19T03:48:57;98048.56;;;12.62;100.00
30618;BME280;17384;51.214;9.202;2023-09-19T03:51:22;98040.41;;;12.62;100.00
30618;BME280;17384;51.214;9.202;2023-09-19T03:53:48;98049.41;;;12.63;100.00
30618;BME280;17384;51.214;9.202;2023-09-19T03:56:17;98032.09;;;12.52;100.00
30618;BME280;17384;51.214;9.202;2023-09-19T03:58:42;98049.53;;;12.39;100.00
30618;BME280;17384;51.214;9.202;2023-09-19T04:01:07;98051.44;;;12.39;100.00
30618;BME280;17384;51.214;9.202;2023-09-19T04:03:34;98045.66;;;12.35;100.00
30618;BME280;17384;51.214;9.202;2023-09-19T04:06:16;98054.97;;;12.39;100.00
30618;BME280;17384;51.214;9.202;2023-09-19T04:08:42;98056.31;;;12.37;100.00
30618;BME280;17384;51.214;9.202;2023-09-19T04:11:09;98050.13;;;12.41;100.00
30618;BME280;17384;51.214;9.202;2023-09-19T04:13:36;98060.44;;;12.39;100.00
30618;BME280;17384;51.214;9.202;2023-09-19T04:16:02;98065.88;;;12.39;100.00
30618;BME280;17384;51.214;9.202;2023-09-19T04:18:32;98061.50;;;12.38;100.00
30618;BME280;17384;51.214;9.202;2023-09-19T04:20:59;98062.66;;;12.42;100.00
30618;BME280;17384;51.214;9.202;2023-09-19T04:23:28;98067.47;;;12.52;100.00
30618;BME280;17384;51.214;9.202;2023-09-19T04:25:53;98063.03;;;12.79;100.00
30618;BME280;17384;51.214;9.202;2023-09-19T04:28:19;98060.38;;;12.68;100.00
30618;BME280;17384;51.214;9.202;2023-09-19T04:30:44;98069.75;;;12.60;100.00
30618;BME280;17384;51.214;9.202;2023-09-19T04:33:10;98061.09;;;12.46;100.00
30618;BME280;17384;51.214;9.202;2023-09-19T04:35:35;98061.78;;;12.53;100.00
30618;BME280;17384;51.214;9.202;2023-09-19T04:38:00;98059.38;;;12.74;100.00
30618;BME280;17384;51.214;9.202;2023-09-19T04:40:26;98060.88;;;12.81;100.00
30618;BME280;17384;51.214;9.202;2023-09-19T04:42:55;98051.78;;;12.93;100.00
30618;BME280;17384;51.214;9.202;2023-09-19T04:45:25;98054.25;;;12.94;100.00
30618;BME280;17384;51.214;9.202;2023-09-19T04:47:55;98059.69;;;12.94;100.00
30618;BME280;17384;51.214;9.202;2023-09-19T04:50:21;98059.13;;;12.92;100.00
30618;BME280;17384;51.214;9.202;2023-09-19T04:52:51;98055.00;;;12.89;100.00
30618;BME280;17384;51.214;9.202;2023-09-19T04:55:17;98055.91;;;12.95;100.00
30618;BME280;17384;51.214;9.202;2023-09-19T04:57:48;98049.97;;;12.98;100.00
30618;BME280;17384;51.214;9.202;2023-09-19T05:00:18;98054.41;;;13.04;100.00
30618;BME280;17384;51.214;9.202;2023-09-19T05:02:45;98060.53;;;12.95;100.00
30618;BME280;17384;51.214;9.202;2023-09-19T05:05:11;98059.88;;;13.04;100.00
30618;BME280;17384;51.214;9.202;2023-09-19T05:07:41;98062.00;;;13.02;100.00
30618;BME280;17384;51.214;9.202;2023-09-19T05:10:08;98053.75;;;12.97;100.00
30618;BME280;17384;51.214;9.202;2023-09-19T05:12:34;98066.63;;;13.02;100.00
30618;BME280;17384;51.214;9.202;2023-09-19T05:15:06;98060.34;;;13.01;100.00
30618;BME280;17384;51.214;9.202;2023-09-19T05:17:32;98057.22;;;12.93;100.00
30618;BME280;17384;51.214;9.202;2023-09-19T05:19:59;98056.00;;;13.00;100.00
30618;BME280;17384;51.214;9.202;2023-09-19T05:22:31;98070.50;;;13.06;100.00
30618;BME280;17384;51.214;9.202;2023-09-19T05:24:58;98071.25;;;13.01;100.00
30618;BME280;17384;51.214;9.202;2023-09-19T05:27:23;98075.88;;;13.01;100.00
30618;BME280;17384;51.214;9.202;2023-09-19T05:29:49;98065.16;;;12.94;100.00
30618;BME280;17384;51.214;9.202;2023-09-19T05:32:18;98063.50;;;12.93;100.00
30618;BME280;17384;51.214;9.202;2023-09-19T05:34:45;98069.34;;;13.02;100.00
30618;BME280;17384;51.214;9.202;2023-09-19T05:37:10;98067.53;;;13.07;100.00
30618;BME280;17384;51.214;9.202;2023-09-19T05:39:36;98082.47;;;13.21;99.04
30618;BME280;17384;51.214;9.202;2023-09-19T05:42:03;98086.75;;;13.17;97.54
30618;BME280;17384;51.214;9.202;2023-09-19T05:44:28;98094.13;;;13.17;97.84
30618;BME280;17384;51.214;9.202;2023-09-19T05:46:54;98102.13;;;13.24;96.23
30618;BME280;17384;51.214;9.202;2023-09-19T05:49:22;98102.03;;;13.18;98.34
30618;BME280;17384;51.214;9.202;2023-09-19T05:51:47;98100.47;;;13.23;98.20
30618;BME280;17384;51.214;9.202;2023-09-19T05:54:13;98119.78;;;13.21;97.74
30618;BME280;17384;51.214;9.202;2023-09-19T05:56:38;98117.38;;;13.25;97.82
30618;BME280;17384;51.214;9.202;2023-09-19T05:59:04;98132.09;;;13.24;98.33
30618;BME280;17384;51.214;9.202;2023-09-19T06:01:31;98122.59;;;13.26;97.32
30618;BME280;17384;51.214;9.202;2023-09-19T06:03:58;98128.69;;;13.16;98.31
30618;BME280;17384;51.214;9.202;2023-09-19T06:06:25;98127.88;;;13.16;97.07
30618;BME280;17384;51.214;9.202;2023-09-19T06:08:52;98131.84;;;13.25;95.26
30618;BME280;17384;51.214;9.202;2023-09-19T06:11:17;98147.44;;;13.30;95.10
30618;BME280;17384;51.214;9.202;2023-09-19T06:13:45;98167.34;;;13.30;96.51
30618;BME280;17384;51.214;9.202;2023-09-19T06:16:12;98177.72;;;13.16;96.57
30618;BME280;17384;51.214;9.202;2023-09-19T06:18:38;98175.66;;;13.24;95.63
30618;BME280;17384;51.214;9.202;2023-09-19T06:21:04;98168.41;;;13.29;93.43
30618;BME280;17384;51.214;9.202;2023-09-19T06:23:33;98187.38;;;13.41;94.21
30618;BME280;17384;51.214;9.202;2023-09-19T06:25:59;98188.78;;;13.43;94.60
30618;BME280;17384;51.214;9.202;2023-09-19T06:28:25;98198.84;;;13.43;95.95
30618;BME280;17384;51.214;9.202;2023-09-19T06:30:56;98206.94;;;13.54;94.46
30618;BME280;17384;51.214;9.202;2023-09-19T06:33:22;98206.69;;;13.56;93.54
30618;BME280;17384;51.214;9.202;2023-09-19T06:35:47;98214.38;;;13.59;93.26
30618;BME280;17384;51.214;9.202;2023-09-19T06:38:13;98201.81;;;13.58;90.07
30618;BME280;17384;51.214;9.202;2023-09-19T06:40:41;98221.94;;;13.74;91.55
30618;BME280;17384;51.214;9.202;2023-09-19T06:43:10;98219.78;;;13.76;91.89
30618;BME280;17384;51.214;9.202;2023-09-19T06:45:35;98226.56;;;13.73;91.08
30618;BME280;17384;51.214;9.202;2023-09-19T06:48:01;98229.88;;;13.92;89.14
30618;BME280;17384;51.214;9.202;2023-09-19T06:50:28;98228.09;;;14.03;89.64
30618;BME280;17384;51.214;9.202;2023-09-19T06:52:56;98231.91;;;14.02;88.84
30618;BME280;17384;51.214;9.202;2023-09-19T06:55:25;98243.28;;;14.15;87.78
30618;BME280;17384;51.214;9.202;2023-09-19T06:57:54;98248.81;;;14.20;86.57
30618;BME280;17384;51.214;9.202;2023-09-19T07:00:20;98263.00;;;14.22;89.61
30618;BME280;17384;51.214;9.202;2023-09-19T07:02:55;98266.63;;;14.28;90.01
30618;BME280;17384;51.214;9.202;2023-09-19T07:05:22;98263.88;;;14.45;89.90
30618;BME280;17384;51.214;9.202;2023-09-19T07:07:47;98258.03;;;14.58;89.23
30618;BME280;17384;51.214;9.202;2023-09-19T07:10:13;98254.38;;;14.47;86.57
30618;BME280;17384;51.214;9.202;2023-09-19T07:12:39;98251.56;;;14.42;88.25
30618;BME280;17384;51.214;9.202;2023-09-19T07:15:06;98247.78;;;14.27;86.54
30618;BME280;17384;51.214;9.202;2023-09-19T07:17:32;98261.66;;;14.25;88.33
30618;BME280;17384;51.214;9.202;2023-09-19T07:19:58;98262.19;;;14.22;87.09
30618;BME280;17384;51.214;9.202;2023-09-19T07:22:26;98267.09;;;14.20;87.85
30618;BME280;17384;51.214;9.202;2023-09-19T07:24:51;98260.03;;;14.24;88.39
30618;BME280;17384;51.214;9.202;2023-09-19T07:27:17;98263.41;;;14.31;89.67
30618;BME280;17384;51.214;9.202;2023-09-19T07:29:42;98265.69;;;14.39;89.68
30618;BME280;17384;51.214;9.202;2023-09-19T07:32:08;98272.44;;;14.53;91.40
30618;BME280;17384;51.214;9.202;2023-09-19T07:34:35;98260.91;;;14.68;88.90
30618;BME280;17384;51.214;9.202;2023-09-19T07:37:01;98256.25;;;14.69;88.74
30618;BME280;17384;51.214;9.202;2023-09-19T07:39:27;98259.88;;;14.74;89.45
30618;BME280;17384;51.214;9.202;2023-09-19T07:41:53;98260.06;;;14.68;87.52
30618;BME280;17384;51.214;9.202;2023-09-19T07:44:19;98252.44;;;14.70;85.41
30618;BME280;17384;51.214;9.202;2023-09-19T07:46:45;98262.28;;;14.71;86.25
30618;BME280;17384;51.214;9.202;2023-09-19T07:49:11;98262.03;;;14.72;87.47
30618;BME280;17384;51.214;9.202;2023-09-19T07:51:36;98259.34;;;14.77;85.32
30618;BME280;17384;51.214;9.202;2023-09-19T07:54:02;98253.97;;;14.61;86.29
30618;BME280;17384;51.214;9.202;2023-09-19T07:56:27;98267.56;;;14.55;86.99
30618;BME280;17384;51.214;9.202;2023-09-19T07:58:56;98267.25;;;14.74;88.79
30618;BME280;17384;51.214;9.202;2023-09-19T08:01:22;98264.81;;;14.77;85.03
30618;BME280;17384;51.214;9.202;2023-09-19T08:03:49;98274.97;;;14.82;86.58
30618;BME280;17384;51.214;9.202;2023-09-19T08:06:14;98258.34;;;15.10;86.51
30618;BME280;17384;51.214;9.202;2023-09-19T08:08:40;98262.41;;;15.35;85.26
30618;BME280;17384;51.214;9.202;2023-09-19T08:11:06;98273.94;;;15.42;86.53
30618;BME280;17384;51.214;9.202;2023-09-19T08:13:41;98275.94;;;15.19;86.22
30618;BME280;17384;51.214;9.202;2023-09-19T08:16:12;98271.69;;;15.07;83.97
30618;BME280;17384;51.214;9.202;2023-09-19T08:18:37;98261.50;;;14.97;84.96
30618;BME280;17384;51.214;9.202;2023-09-19T08:21:05;98282.41;;;14.86;86.86
30618;BME280;17384;51.214;9.202;2023-09-19T08:23:35;98275.59;;;14.89;84.19
30618;BME280;17384;51.214;9.202;2023-09-19T08:26:01;98282.84;;;15.00;85.13
30618;BME280;17384;51.214;9.202;2023-09-19T08:28:32;98286.34;;;14.96;85.80
30618;BME280;17384;51.214;9.202;2023-09-19T08:31:04;98272.75;;;15.06;85.09
30618;BME280;17384;51.214;9.202;2023-09-19T08:33:32;98285.00;;;15.25;86.58
30618;BME280;17384;51.214;9.202;2023-09-19T08:35:58;98283.44;;;15.07;85.88
30618;BME280;17384;51.214;9.202;2023-09-19T08:38:23;98280.13;;;15.05;84.85
30618;BME280;17384;51.214;9.202;2023-09-19T08:40:49;98274.72;;;15.10;85.46
30618;BME280;17384;51.214;9.202;2023-09-19T08:43:14;98275.97;;;14.98;85.45
30618;BME280;17384;51.214;9.202;2023-09-19T08:45:40;98291.06;;;15.05;87.45
30618;BME280;17384;51.214;9.202;2023-09-19T08:50:33;98276.88;;;15.35;82.51
30618;BME280;17384;51.214;9.202;2023-09-19T08:56:37;98281.19;;;15.85;81.48
30618;BME280;17384;51.214;9.202;2023-09-19T09:02:22;98309.78;;;15.72;79.83
30618;BME280;17384;51.214;9.202;2023-09-19T09:04:49;98307.00;;;15.67;81.75
30618;BME280;17384;51.214;9.202;2023-09-19T09:07:16;98300.66;;;15.56;80.05
30618;BME280;17384;51.214;9.202;2023-09-19T09:09:44;98306.75;;;15.42;80.61
30618;BME280;17384;51.214;9.202;2023-09-19T09:12:13;98299.88;;;15.39;80.31
30618;BME280;17384;51.214;9.202;2023-09-19T09:14:45;98293.59;;;15.66;79.58
30618;BME280;17384;51.214;9.202;2023-09-19T09:17:14;98300.25;;;16.12;81.04
30618;BME280;17384;51.214;9.202;2023-09-19T09:19:39;98296.63;;;16.01;78.79
30618;BME280;17384;51.214;9.202;2023-09-19T09:22:10;98299.63;;;16.00;78.52
30618;BME280;17384;51.214;9.202;2023-09-19T09:24:37;98297.75;;;16.05;77.11
30618;BME280;17384;51.214;9.202;2023-09-19T09:27:05;98301.91;;;16.18;78.29
30618;BME280;17384;51.214;9.202;2023-09-19T09:37:20;98313.75;;;16.66;77.00
30618;BME280;17384;51.214;9.202;2023-09-19T09:39:54;98306.19;;;16.93;77.25
30618;BME280;17384;51.214;9.202;2023-09-19T09:42:37;98316.00;;;16.84;75.85
30618;BME280;17384;51.214;9.202;2023-09-19T09:45:23;98313.25;;;16.84;75.76
30618;BME280;17384;51.214;9.202;2023-09-19T09:47:59;98321.53;;;16.99;75.31
30618;BME280;17384;51.214;9.202;2023-09-19T09:50:46;98331.16;;;16.54;78.01
30618;BME280;17384;51.214;9.202;2023-09-19T09:53:31;98323.75;;;17.07;76.93
30618;BME280;17384;51.214;9.202;2023-09-19T09:56:07;98318.84;;;17.24;73.94
30618;BME280;17384;51.214;9.202;2023-09-19T09:58:51;98331.00;;;16.71;72.78
30618;BME280;17384;51.214;9.202;2023-09-19T10:01:21;98334.69;;;17.02;75.94
30618;BME280;17384;51.214;9.202;2023-09-19T10:03:57;98315.19;;;16.88;73.86
30618;BME280;17384;51.214;9.202;2023-09-19T10:06:22;98317.28;;;16.71;76.51
30618;BME280;17384;51.214;9.202;2023-09-19T10:09:08;98325.63;;;16.97;76.00
30618;BME280;17384;51.214;9.202;2023-09-19T10:11:45;98326.34;;;16.72;74.61
30618;BME280;17384;51.214;9.202;2023-09-19T10:14:30;98323.59;;;16.72;73.98
30618;BME280;17384;51.214;9.202;2023-09-19T10:16:58;98323.88;;;16.70;75.65
30618;BME280;17384;51.214;9.202;2023-09-19T10:19:54;98327.91;;;16.57;76.78
30618;BME280;17384;51.214;9.202;2023-09-19T10:22:22;98340.59;;;16.74;77.56
30618;BME280;17384;51.214;9.202;2023-09-19T10:24:49;98319.31;;;16.96;76.16
30618;BME280;17384;51.214;9.202;2023-09-19T10:27:19;98328.38;;;17.02;76.47
30618;BME280;17384;51.214;9.202;2023-09-19T10:29:49;98318.72;;;16.79;76.18
30618;BME280;17384;51.214;9.202;2023-09-19T10:32:19;98327.53;;;16.86;76.07
30618;BME280;17384;51.214;9.202;2023-09-19T10:34:49;98329.75;;;16.99;79.17
30618;BME280;17384;51.214;9.202;2023-09-19T10:37:18;98312.25;;;17.10;75.00
30618;BME280;17384;51.214;9.202;2023-09-19T10:39:48;98320.22;;;17.17;74.94
30618;BME280;17384;51.214;9.202;2023-09-19T10:42:19;98318.28;;;17.12;74.17
30618;BME280;17384;51.214;9.202;2023-09-19T10:44:46;98318.31;;;17.17;75.44
30618;BME280;17384;51.214;9.202;2023-09-19T10:47:12;98327.13;;;17.35;71.12
30618;BME280;17384;51.214;9.202;2023-09-19T10:49:46;98318.84;;;17.14;71.93
30618;BME280;17384;51.214;9.202;2023-09-19T10:52:14;98322.16;;;17.21;72.55
30618;BME280;17384;51.214;9.202;2023-09-19T10:54:47;98314.03;;;17.87;73.10
30618;BME280;17384;51.214;9.202;2023-09-19T10:57:25;98303.03;;;18.08;70.40
30618;BME280;17384;51.214;9.202;2023-09-19T11:00:06;98312.00;;;18.69;67.92
30618;BME280;17384;51.214;9.202;2023-09-19T11:03:23;98314.22;;;18.52;67.33
30618;BME280;17384;51.214;9.202;2023-09-19T11:06:14;98293.69;;;18.09;70.66
30618;BME280;17384;51.214;9.202;2023-09-19T11:11:46;98302.53;;;17.75;71.32
30618;BME280;17384;51.214;9.202;2023-09-19T11:30:52;98314.03;;;17.98;70.22
30618;BME280;17384;51.214;9.202;2023-09-19T11:33:23;98320.09;;;17.74;71.44
30618;BME280;17384;51.214;9.202;2023-09-19T11:36:06;98307.44;;;18.14;71.97
30618;BME280;17384;51.214;9.202;2023-09-19T11:41:38;98309.63;;;18.27;67.46
30618;BME280;17384;51.214;9.202;2023-09-19T11:46:52;98297.59;;;17.72;67.28
30618;BME280;17384;51.214;9.202;2023-09-19T11:49:38;98291.53;;;17.80;69.30
30618;BME280;17384;51.214;9.202;2023-09-19T11:52:05;98286.03;;;17.90;67.33
30618;BME280;17384;51.214;9.202;2023-09-19T11:54:33;98295.91;;;18.12;66.70
30618;BME280;17384;51.214;9.202;2023-09-19T11:57:02;98288.19;;;18.29;64.71
30618;BME280;17384;51.214;9.202;2023-09-19T11:59:29;98299.97;;;18.35;66.85
30618;BME280;17384;51.214;9.202;2023-09-19T12:02:05;98289.03;;;18.09;66.54
30618;BME280;17384;51.214;9.202;2023-09-19T12:04:40;98304.69;;;18.19;69.19
30618;BME280;17384;51.214;9.202;2023-09-19T12:07:14;98296.63;;;18.68;66.73
30618;BME280;17384;51.214;9.202;2023-09-19T12:12:22;98300.22;;;18.53;67.15
30618;BME280;17384;51.214;9.202;2023-09-19T12:14:50;98294.72;;;18.53;64.82
30618;BME280;17384;51.214;9.202;2023-09-19T12:17:18;98293.69;;;18.09;65.64
30618;BME280;17384;51.214;9.202;2023-09-19T12:19:53;98268.91;;;18.59;68.50
30618;BME280;17384;51.214;9.202;2023-09-19T12:22:19;98275.00;;;18.31;67.21
30618;BME280;17384;51.214;9.202;2023-09-19T12:24:48;98286.81;;;18.32;67.22
30618;BME280;17384;51.214;9.202;2023-09-19T12:27:16;98276.91;;;18.36;65.31
30618;BME280;17384;51.214;9.202;2023-09-19T12:29:44;98291.69;;;18.60;66.51
30618;BME280;17384;51.214;9.202;2023-09-19T12:32:10;98288.66;;;18.67;67.20
30618;BME280;17384;51.214;9.202;2023-09-19T12:34:36;98295.28;;;18.50;66.80
30618;BME280;17384;51.214;9.202;2023-09-19T12:37:15;98289.03;;;18.30;64.44
30618;BME280;17384;51.214;9.202;2023-09-19T12:39:46;98296.72;;;18.17;66.20
30618;BME280;17384;51.214;9.202;2023-09-19T12:42:15;98309.38;;;17.98;67.25
30618;BME280;17384;51.214;9.202;2023-09-19T12:44:45;98290.44;;;17.86;68.35
30618;BME280;17384;51.214;9.202;2023-09-19T12:47:15;98296.44;;;18.14;68.53
30618;BME280;17384;51.214;9.202;2023-09-19T12:52:40;98284.94;;;18.02;68.38
30618;BME280;17384;51.214;9.202;2023-09-19T12:55:06;98286.31;;;18.04;67.83
30618;BME280;17384;51.214;9.202;2023-09-19T12:57:33;98287.69;;;17.66;67.95
30618;BME280;17384;51.214;9.202;2023-09-19T13:00:03;98289.84;;;17.39;69.65
30618;BME280;17384;51.214;9.202;2023-09-19T13:02:31;98288.19;;;17.43;68.50
30618;BME280;17384;51.214;9.202;2023-09-19T13:04:58;98290.94;;;17.58;69.75
30618;BME280;17384;51.214;9.202;2023-09-19T13:07:44;98279.69;;;17.59;70.00
30618;BME280;17384;51.214;9.202;2023-09-19T13:10:11;98287.13;;;18.00;70.82
30618;BME280;17384;51.214;9.202;2023-09-19T13:12:38;98290.69;;;17.80;70.03
30618;BME280;17384;51.214;9.202;2023-09-19T13:15:10;98290.72;;;17.65;69.73
30618;BME280;17384;51.214;9.202;2023-09-19T13:17:46;98286.53;;;17.52;69.89
30618;BME280;17384;51.214;9.202;2023-09-19T13:20:25;98281.13;;;17.67;69.54
30618;BME280;17384;51.214;9.202;2023-09-19T13:22:53;98275.06;;;17.96;69.11
30618;BME280;17384;51.214;9.202;2023-09-19T13:25:21;98269.53;;;18.06;68.53
30618;BME280;17384;51.214;9.202;2023-09-19T13:27:49;98270.66;;;17.84;69.70
30618;BME280;17384;51.214;9.202;2023-09-19T13:30:17;98278.31;;;17.57;67.51
30618;BME280;17384;51.214;9.202;2023-09-19T13:32:43;98277.53;;;17.67;68.52
30618;BME280;17384;51.214;9.202;2023-09-19T13:35:09;98263.25;;;17.90;67.54
30618;BME280;17384;51.214;9.202;2023-09-19T13:37:35;98261.88;;;17.98;66.80
30618;BME280;17384;51.214;9.202;2023-09-19T13:40:09;98261.63;;;17.94;69.02
30618;BME280;17384;51.214;9.202;2023-09-19T13:42:35;98248.94;;;18.13;67.06
30618;BME280;17384;51.214;9.202;2023-09-19T13:45:02;98249.47;;;18.31;66.99
30618;BME280;17384;51.214;9.202;2023-09-19T13:47:30;98252.16;;;18.46;66.54
30618;BME280;17384;51.214;9.202;2023-09-19T13:49:55;98251.63;;;18.44;64.06
30618;BME280;17384;51.214;9.202;2023-09-19T13:52:21;98244.19;;;18.44;66.13
30618;BME280;17384;51.214;9.202;2023-09-19T13:54:51;98244.81;;;18.26;67.98
30618;BME280;17384;51.214;9.202;2023-09-19T13:57:18;98242.53;;;18.48;66.46
30618;BME280;17384;51.214;9.202;2023-09-19T13:59:43;98245.75;;;18.71;64.39
30618;BME280;17384;51.214;9.202;2023-09-19T14:02:09;98265.03;;;18.55;66.86
30618;BME280;17384;51.214;9.202;2023-09-19T14:04:34;98254.16;;;18.30;65.51
30618;BME280;17384;51.214;9.202;2023-09-19T14:07:01;98250.38;;;17.96;65.43
30618;BME280;17384;51.214;9.202;2023-09-19T14:09:27;98242.94;;;17.96;66.66